Nagornyj, Russia
Current Conditions -  °F | °C
As of 1:30 PM on Sunday 21 Dec 2014 (Local Time) from UHBB Reporting Station
Clear Clear  
Wind Chill: -9°   Ceiling: Unl
Heat Index: -9°   Visibility: 6mi
Dew Point: -20°   Wind: 0mph
Humidity: 59%   Direction: NA
Pressure: 29.8"   Gusts: NA
Location:  55.97°N, 124.88°E
Report Text: UHBB 210430Z 00000MPS CAVOK M23/M29 Q1009 NOSIG RMK QFE739/098636410250
Loading
Personal Weather Stations






























Interactive Weather Map New forecast layout! Learn more

10-Day Weather Forecast

Advertisements
Track Severe Weather on mobile